Administrative Calls
Filters
Within Geographical Area
Additional
 Admin ScenarioDate Time SetWater Source NameLocation WDIDLocation Structure NamePriority WDIDPriority Structure NamePriority Admin NoPriority DatePriority NoPriority AmountBounding WDIDBounding StructureSet Comments
DetailsCALL5/26/2017 7:00 PMBIG CREEK7200911TEMS DITCH7200643GOLDEN AGE DITCH22995.1738412/16/1912CA26352.16 C   
DetailsCALL5/26/2017 8:00 AMRIO GRANDE2499999RIO GRANDE COMPACT - LOBATOS2000812RIO GRANDE CNL15296.0000011/17/1891365293.7 C   
DetailsCALL5/25/2017 1:30 PMLA PLATA RIVER3300001LA PLATA RIVER3303530LONG HOLLOW RESERVOIR54968.0000006/30/200000CW00494200 A  50 CFS REQUESTED BY NM
DetailsCALL5/25/2017 7:30 AMSTOUT CREEK1200580STOUT DITCH NO 11200584WAGGONER DITCH11079.0000005/01/1880 1.48 C   
DetailsCALL5/24/2017 8:00 AMARKANSAS RIVER6799999COLORADO-KANSAS STATE LINE6700607AMITY CANAL13566.0000002/21/18870283.5 C6703512JOHN MARTIN RESERVOIR 
DetailsCALL5/24/2017 8:00 AMSOUTH HUNT CREEK5800722LAFON DITCH5800767MAYFLOWER DITCH22074.2171106/09/19101873 C  LAFON ALT PT #1 IS ALSO RUNNING.
DetailsCALL5/22/2017 3:00 PMFOURMILE CREEK1200531TITSWORTH DITCH1200529GARDEN PARK DITCH9982.0000004/30/1877 1.32 C   
DetailsCALL5/22/2017 8:00 AMCATTLE CREEK3800569C AND M DITCH3800569C AND M DITCH20109.1923701/21/1905218B8 C   
DetailsCALL5/22/2017 8:00 AMCATTLE CREEK3800860MASON DITCH3800925PARK DITCH23107.1997804/07/1913221A10.8 C   
DetailsCALL5/22/2017 8:00 AMCACHE CREEK4500694MOCKING BIRD DITCH4500694MOCKING BIRD DITCH13467.0000011/14/1886621.08 C   
DetailsCALL5/20/2017 7:45 AMMESA CREEK7200516ATWELL DITCH MESA CREEK7200516ATWELL DITCH MESA CREEK16513.1412103/18/1895881.63 C  ADMINISTRATIVE CALL SET
DetailsUPSTREAM JUNIOR CALL5/19/2017 8:00 AMTRINCHERA CREEK3500579TRINCHERA CANAL3500579TRINCHERA CANAL13858.0000012/10/18874076 C   
DetailsCALL5/18/2017 8:00 AMSOUTH BOULDER CREEK0604199GROSS RES0604199GROSS RES34828.0000005/10/1945CA12111113078 A   
DetailsCALL5/18/2017 8:00 AMWEST FOURMILE CREEK1200757KITTRIDGE DITCH NO 21200757KITTRIDGE DITCH NO 27548.0000008/31/1870242 C   
DetailsCALL5/18/2017 8:00 AMBEAVER CREEK4500641J A CLARK DITCH4500793TAUGHENBAUGH DITCH13576.0000003/03/1887668.5 C   
DetailsCALL5/17/2017 8:00 AMARKANSAS RIVER6703512JOHN MARTIN RESERVOIR1700553FORT LYON CANAL20186.1701504/08/1905R61150 C   
DetailsCALL5/17/2017 8:00 AMHUERFANO RIVER7900559R L SMITH DITCH NO 17900559R L SMITH DITCH NO 116557.0000005/01/1895CA16431 C   
DetailsCALL5/17/2017 8:00 AMRIO ALTO CREEK7900752J M DITCH7900752J M DITCH17586.1616202/23/18981961.2 C  NARANJO CREEK
DetailsUPSTREAM JUNIOR CALL5/17/2017 8:00 AMTRINCHERA CREEK3500597NOTLEY BALL OVERFLOW D 13500523GARLAND D,HDGT 221376.0000007/11/1908 123 C   
DetailsCALL5/16/2017 4:00 PMSOUTH PLATTE RIVER8003550CHEESMAN RES8003550CHEESMAN RES14423.0000006/27/1889CA163630691 A   
1234Viewing: 1 - 20 of 62 ResultsPage Size: